Time;durP1;ratioP1;P1;durP2;ratioP2;P2;SDS_P1;SDS_P2;PMS_P1;PMS_P2;Temp;Humidity;BMP_temperature;BMP_pressure;BME280_temperature;BME280_humidity;BME280_pressure;Samples;Min_cycle;Max_cycle;Signal;HPM_P1;HPM_P2
2023/04/11 00:00:34;;;;;;;0.00;0.00;;;;;;;5.38;90.52;100015.75;6306093;22;20052;-76
2023/04/11 00:03:05;;;;;;;0.00;0.00;;;;;;;5.30;91.16;99997.19;6301098;22;20013;-75
2023/04/11 00:05:31;;;;;;;0.00;0.00;;;;;;;5.44;91.79;100024.00;6279835;22;20003;-77
2023/04/11 00:07:56;;;;;;;0.00;0.00;;;;;;;5.32;91.44;100010.50;6281257;22;20014;-76
2023/04/11 00:10:22;;;;;;;0.00;0.00;;;;;;;5.47;91.52;100023.50;6274832;22;20030;-76
2023/04/11 00:12:47;;;;;;;0.00;0.00;;;;;;;5.44;91.98;100018.59;6280904;22;20105;-75
2023/04/11 00:15:14;;;;;;;0.00;0.00;;;;;;;5.52;91.31;100048.00;6301220;22;20032;-77
2023/04/11 00:17:41;;;;;;;0.00;0.00;;;;;;;5.42;91.28;100037.81;6334900;22;20066;-76
2023/04/11 00:20:13;;;;;;;0.00;0.00;;;;;;;5.48;92.18;100057.72;6329309;22;20003;-75
2023/04/11 00:22:39;;;;;;;0.00;0.00;;;;;;;5.31;91.55;100034.06;6307027;22;20029;-76
2023/04/11 00:25:08;;;;;;;0.00;0.00;;;;;;;5.39;91.36;100066.22;6275426;22;20089;-77
2023/04/11 00:27:33;;;;;;;0.00;0.00;;;;;;;5.19;92.58;100027.84;6332583;22;20090;-76
2023/04/11 00:30:03;;;;;;;0.00;0.00;;;;;;;5.20;92.03;100034.94;6334422;22;20026;-76
2023/04/11 00:32:29;;;;;;;0.00;0.00;;;;;;;5.10;92.98;100027.41;6275615;22;20462;-77
2023/04/11 00:34:54;;;;;;;0.00;0.00;;;;;;;5.27;92.73;100054.59;6278839;22;20027;-77
2023/04/11 00:37:25;;;;;;;0.00;0.00;;;;;;;5.05;93.44;100038.97;6300521;22;20006;-76
2023/04/11 00:39:53;;;;;;;0.10;0.10;;;;;;;5.13;94.14;100047.78;6304680;22;20006;-76
2023/04/11 00:42:19;;;;;;;0.00;0.00;;;;;;;5.12;94.09;100055.09;6327809;22;20010;-76
2023/04/11 00:44:45;;;;;;;0.00;0.00;;;;;;;5.07;94.01;100042.25;6301325;22;20030;-77
2023/04/11 00:47:14;;;;;;;0.00;0.00;;;;;;;4.98;94.46;100023.88;6303741;22;19999;-76
2023/04/11 00:49:40;;;;;;;0.00;0.00;;;;;;;5.16;94.69;100050.03;6300603;22;20033;-76
2023/04/11 00:52:08;;;;;;;0.00;0.00;;;;;;;5.04;94.47;100042.72;6280024;22;20034;-76
2023/04/11 00:54:34;;;;;;;0.08;0.08;;;;;;;4.93;95.26;100018.38;6329192;22;20010;-75
2023/04/11 00:57:05;;;;;;;0.00;0.00;;;;;;;5.04;94.72;100056.28;6305290;22;20003;-76
2023/04/11 00:59:31;;;;;;;0.00;0.00;;;;;;;4.86;95.14;100026.63;6303890;22;20007;-76
2023/04/11 01:02:01;;;;;;;0.00;0.00;;;;;;;4.88;95.95;100032.63;6303147;22;20140;-77
2023/04/11 01:04:31;;;;;;;0.00;0.00;;;;;;;4.90;95.46;100042.16;6302404;22;20002;-75
2023/04/11 01:07:12;;;;;;;0.00;0.00;;;;;;;4.90;95.84;100058.41;6298199;22;20614;-75
2023/04/11 01:09:40;;;;;;;0.00;0.00;;;;;;;4.81;96.51;100031.94;6303242;22;20326;-76
2023/04/11 01:12:06;;;;;;;0.00;0.00;;;;;;;4.69;95.66;100024.63;6296998;22;20006;-76
2023/04/11 01:14:31;;;;;;;0.00;0.00;;;;;;;4.97;95.57;100068.31;6326684;22;20058;-75
2023/04/11 01:17:00;;;;;;;0.00;0.00;;;;;;;4.93;96.13;100064.44;6297735;22;20106;-76
2023/04/11 01:19:29;;;;;;;0.00;0.00;;;;;;;4.86;95.73;100051.84;6302860;22;20098;-75
2023/04/11 01:21:56;;;;;;;0.10;0.10;;;;;;;4.93;95.72;100070.66;6296367;22;20053;-74
2023/04/11 01:24:22;;;;;;;0.00;0.00;;;;;;;4.76;96.00;100045.34;6302742;22;20007;-76
2023/04/11 01:26:50;;;;;;;0.00;0.00;;;;;;;4.85;96.36;100062.91;6324136;22;19999;-75
2023/04/11 01:29:15;;;;;;;0.00;0.00;;;;;;;4.83;95.91;100065.03;6301920;22;20013;-75
2023/04/11 01:31:41;;;;;;;0.00;0.00;;;;;;;4.83;96.32;100065.88;6277846;22;20128;-76
2023/04/11 01:34:06;;;;;;;0.00;0.00;;;;;;;4.84;96.83;100058.56;6274111;22;20098;-76
2023/04/11 01:36:32;;;;;;;0.00;0.00;;;;;;;4.86;96.83;100073.53;6279892;22;20013;-76
2023/04/11 01:38:58;;;;;;;0.00;0.00;;;;;;;4.71;96.44;100041.47;6299921;22;20382;-76
2023/04/11 01:41:28;;;;;;;0.00;0.00;;;;;;;4.71;96.14;100043.38;6303234;22;20105;-78
2023/04/11 01:43:53;;;;;;;0.00;0.00;;;;;;;4.76;97.02;100056.19;6304536;22;20064;-75
2023/04/11 01:46:20;;;;;;;0.00;0.00;;;;;;;4.79;97.33;100066.56;6274525;22;20040;-76
2023/04/11 01:48:47;;;;;;;0.00;0.00;;;;;;;4.66;97.01;100052.19;6304510;22;20003;-76
2023/04/11 01:51:12;;;;;;;0.00;0.00;;;;;;;4.58;97.06;100049.84;6302229;22;20007;-75
2023/04/11 01:53:40;;;;;;;0.00;0.00;;;;;;;4.61;96.78;100068.31;6333984;22;20025;-76
2023/04/11 01:56:06;;;;;;;0.00;0.00;;;;;;;4.65;97.74;100069.50;6276179;22;20014;-77
2023/04/11 01:58:31;;;;;;;0.00;0.00;;;;;;;4.68;97.89;100060.91;6277567;22;20352;-78
2023/04/11 02:01:00;;;;;;;0.00;0.00;;;;;;;4.57;97.55;100053.63;6280168;22;20011;-76
2023/04/11 02:03:25;;;;;;;0.00;0.00;;;;;;;4.71;97.54;100079.38;6301735;22;20003;-75
2023/04/11 02:05:51;;;;;;;0.00;0.00;;;;;;;4.71;96.88;100075.88;6330252;22;20010;-75
2023/04/11 02:08:16;;;;;;;0.00;0.00;;;;;;;4.63;96.95;100052.69;6275970;22;20007;-75
2023/04/11 02:10:42;;;;;;;0.00;0.00;;;;;;;4.82;96.98;100082.34;6279936;22;20329;-75
2023/04/11 02:13:07;;;;;;;0.00;0.00;;;;;;;4.78;96.27;100075.75;6278258;22;20003;-75
2023/04/11 02:15:32;;;;;;;0.00;0.00;;;;;;;4.80;96.78;100081.75;6278170;22;20479;-75
2023/04/11 02:17:59;;;;;;;0.00;0.00;;;;;;;4.81;95.95;100070.69;6278937;22;20010;-76
2023/04/11 02:20:24;;;;;;;0.00;0.00;;;;;;;4.84;95.80;100082.94;6302499;22;20057;-76
2023/04/11 02:22:50;;;;;;;0.00;0.00;;;;;;;4.74;96.12;100052.91;6305364;22;20449;-75
2023/04/11 02:25:15;;;;;;;0.00;0.00;;;;;;;4.86;95.63;100078.09;6274814;22;20007;-75
2023/04/11 02:27:40;;;;;;;0.00;0.00;;;;;;;4.81;95.81;100075.28;6279995;22;20091;-75
2023/04/11 02:30:06;;;;;;;0.00;0.00;;;;;;;4.84;95.53;100074.81;6278269;22;20002;-75
2023/04/11 02:32:39;;;;;;;0.00;0.00;;;;;;;4.75;95.59;100065.41;6279969;22;20003;-75
2023/04/11 02:35:06;;;;;;;0.10;0.10;;;;;;;4.78;95.64;100075.75;6305314;22;20093;-75
2023/04/11 02:37:32;;;;;;;0.00;0.00;;;;;;;4.76;95.90;100075.16;6302635;22;20391;-75
2023/04/11 02:39:57;;;;;;;0.03;0.03;;;;;;;4.69;96.62;100078.00;6306504;22;20006;-74
2023/04/11 02:42:23;;;;;;;0.00;0.00;;;;;;;4.68;96.21;100082.56;6306163;22;20010;-75
2023/04/11 02:44:48;;;;;;;0.00;0.00;;;;;;;4.70;96.32;100094.00;6302359;22;20655;-75
2023/04/11 02:47:14;;;;;;;0.00;0.00;;;;;;;4.63;96.64;100071.63;6307923;22;20044;-75
2023/04/11 02:49:42;;;;;;;0.00;0.00;;;;;;;4.69;96.84;100086.94;6275854;22;20083;-75
2023/04/11 02:52:08;;;;;;;0.00;0.00;;;;;;;4.64;97.51;100081.38;6285662;22;20315;-74
2023/04/11 02:54:33;;;;;;;0.10;0.10;;;;;;;4.61;97.35;100081.88;6274740;22;20014;-75
2023/04/11 02:56:59;;;;;;;0.00;0.00;;;;;;;4.68;97.24;100090.69;6306576;22;20006;-76
2023/04/11 02:59:25;;;;;;;0.00;0.00;;;;;;;4.63;96.97;100087.88;6278978;22;20033;-75
2023/04/11 03:01:56;;;;;;;0.00;0.00;;;;;;;4.65;97.89;100088.47;6277702;22;20085;-75
2023/04/11 03:04:21;;;;;;;0.00;0.00;;;;;;;4.64;97.98;100070.56;6277676;22;20017;-76
2023/04/11 03:06:57;;;;;;;0.05;0.05;;;;;;;4.70;98.12;100085.88;6306456;22;20317;-75
2023/04/11 03:09:22;;;;;;;0.00;0.00;;;;;;;4.54;98.21;100059.47;6302691;22;20379;-76
2023/04/11 03:11:48;;;;;;;0.00;0.00;;;;;;;4.58;98.30;100066.09;6305062;22;20038;-75
2023/04/11 03:14:14;;;;;;;0.00;0.00;;;;;;;4.68;99.13;100082.56;6275751;22;20125;-76
2023/04/11 03:16:47;;;;;;;0.00;0.00;;;;;;;4.60;98.66;100069.41;6280632;22;20060;-76
2023/04/11 03:19:12;;;;;;;0.00;0.00;;;;;;;4.53;99.05;100058.66;6302812;22;20651;-75
2023/04/11 03:21:37;;;;;;;0.00;0.00;;;;;;;4.67;99.39;100077.41;6305617;22;20011;-76
2023/04/11 03:24:03;;;;;;;0.10;0.10;;;;;;;4.68;99.17;100071.75;6280666;22;20013;-76
2023/04/11 03:26:33;;;;;;;0.00;0.00;;;;;;;4.69;98.45;100073.41;6302000;22;20075;-75
2023/04/11 03:28:59;;;;;;;0.00;0.00;;;;;;;4.58;98.52;100066.09;6280641;22;20015;-75
2023/04/11 03:31:31;;;;;;;0.00;0.00;;;;;;;4.50;99.04;100063.75;6297644;22;20010;-76
2023/04/11 03:33:58;;;;;;;0.00;0.00;;;;;;;4.52;98.47;100067.84;6284142;22;20010;-75
2023/04/11 03:36:33;;;;;;;0.00;0.00;;;;;;;4.42;98.83;100069.50;6276935;22;20121;-76
2023/04/11 03:38:59;;;;;;;0.03;0.03;;;;;;;4.36;99.35;100077.47;6282130;22;20022;-76
2023/04/11 03:41:24;;;;;;;0.00;0.00;;;;;;;4.31;99.32;100082.78;6300448;22;20010;-76
2023/04/11 03:43:50;;;;;;;0.00;0.00;;;;;;;4.33;99.38;100083.38;6279463;22;20006;-75
2023/04/11 03:46:15;;;;;;;0.00;0.00;;;;;;;4.33;98.91;100086.06;6304729;22;20059;-74
2023/04/11 03:48:41;;;;;;;0.00;0.00;;;;;;;4.31;99.60;100088.19;6277985;22;20017;-76
2023/04/11 03:51:06;;;;;;;0.00;0.00;;;;;;;4.35;99.31;100092.09;6280110;22;20082;-75
2023/04/11 03:53:34;;;;;;;0.00;0.00;;;;;;;4.37;98.96;100097.28;6274821;22;20007;-75
2023/04/11 03:56:00;;;;;;;0.00;0.00;;;;;;;4.33;98.81;100079.84;6280255;22;20026;-74
2023/04/11 03:58:28;;;;;;;0.00;0.00;;;;;;;4.31;98.67;100080.06;6274837;22;20029;-76
2023/04/11 04:00:53;;;;;;;0.00;0.00;;;;;;;4.15;98.22;100061.81;6279856;22;20010;-75
2023/04/11 04:03:19;;;;;;;0.00;0.00;;;;;;;4.25;98.65;100085.59;6305616;22;20700;-75
2023/04/11 04:05:44;;;;;;;0.00;0.00;;;;;;;4.20;98.70;100075.47;6275984;22;20015;-75
2023/04/11 04:08:10;;;;;;;0.00;0.00;;;;;;;4.12;98.54;100067.69;6279965;22;20052;-75
2023/04/11 04:10:35;;;;;;;0.00;0.00;;;;;;;4.16;98.51;100085.09;6301414;22;20030;-76
2023/04/11 04:13:01;;;;;;;0.00;0.00;;;;;;;4.26;98.73;100107.00;6306557;22;20006;-76
2023/04/11 04:15:26;;;;;;;0.00;0.00;;;;;;;4.14;98.20;100081.81;6302922;22;20017;-76
2023/04/11 04:17:54;;;;;;;0.00;0.00;;;;;;;4.23;98.47;100099.34;6279794;22;20318;-76
2023/04/11 04:20:19;;;;;;;0.00;0.00;;;;;;;4.19;98.62;100095.44;6308242;22;20037;-76
2023/04/11 04:22:46;;;;;;;0.00;0.00;;;;;;;4.18;98.95;100096.53;6277415;22;20442;-75
2023/04/11 04:25:14;;;;;;;0.00;0.00;;;;;;;4.00;98.75;100083.88;6281894;22;20009;-76
2023/04/11 04:27:43;;;;;;;0.00;0.00;;;;;;;4.01;98.78;100099.88;6300785;22;19999;-76
2023/04/11 04:30:10;;;;;;;0.10;0.10;;;;;;;3.90;98.19;100087.16;6333243;22;20089;-75
2023/04/11 04:32:35;;;;;;;0.00;0.00;;;;;;;3.83;98.89;100081.03;6279181;22;20455;-75
2023/04/11 04:35:04;;;;;;;0.00;0.00;;;;;;;3.83;98.37;100089.13;6309212;22;20003;-73
2023/04/11 04:37:29;;;;;;;0.00;0.00;;;;;;;3.84;97.99;100097.03;6334109;22;20011;-74
2023/04/11 04:40:00;;;;;;;0.00;0.00;;;;;;;3.74;98.08;100095.91;6282934;22;20559;-75
2023/04/11 04:42:27;;;;;;;0.00;0.00;;;;;;;3.61;98.87;100092.34;6333792;22;20329;-75
2023/04/11 04:44:55;;;;;;;0.00;0.00;;;;;;;3.59;98.25;100089.03;6301255;22;20010;-75
2023/04/11 04:47:23;;;;;;;0.00;0.00;;;;;;;3.54;98.28;100094.28;6305284;22;20080;-73
2023/04/11 04:49:48;;;;;;;0.00;0.00;;;;;;;3.46;98.58;100086.47;6301866;22;20313;-74
2023/04/11 04:52:14;;;;;;;0.00;0.00;;;;;;;3.32;98.70;100075.84;6278978;22;20018;-75
2023/04/11 04:54:40;;;;;;;0.00;0.00;;;;;;;3.35;98.13;100095.38;6302075;22;21416;-75
2023/04/11 04:57:06;;;;;;;0.00;0.00;;;;;;;3.31;98.13;100103.94;6304855;22;20461;-74
2023/04/11 04:59:32;;;;;;;0.00;0.00;;;;;;;3.31;98.18;100112.06;6304249;22;20006;-74
2023/04/11 05:01:58;;;;;;;0.00;0.00;;;;;;;3.26;98.84;100109.19;6274509;22;20117;-74
2023/04/11 05:04:23;;;;;;;0.00;0.00;;;;;;;3.23;98.98;100109.63;6305879;22;20007;-76
2023/04/11 05:06:49;;;;;;;0.00;0.00;;;;;;;3.20;98.25;100093.88;6275855;22;20327;-74
2023/04/11 05:09:16;;;;;;;0.00;0.00;;;;;;;3.26;98.30;100113.78;6279571;22;20474;-75
2023/04/11 05:11:44;;;;;;;0.10;0.10;;;;;;;3.11;98.56;100095.22;6305586;22;20034;-75
2023/04/11 05:14:09;;;;;;;0.00;0.00;;;;;;;3.03;98.77;100087.41;6301900;22;19998;-75
2023/04/11 05:16:36;;;;;;;0.00;0.00;;;;;;;3.17;98.71;100102.44;6279271;22;20017;-75
2023/04/11 05:19:02;;;;;;;0.00;0.00;;;;;;;2.94;98.58;100068.78;6329367;22;20076;-75
2023/04/11 05:21:27;;;;;;;0.00;0.00;;;;;;;2.98;98.68;100080.00;6305771;22;20032;-75
2023/04/11 05:23:53;;;;;;;0.00;0.00;;;;;;;3.01;99.07;100089.50;6331318;22;20089;-75
2023/04/11 05:26:19;;;;;;;0.00;0.00;;;;;;;3.05;98.78;100096.97;6304754;22;20011;-75
2023/04/11 05:28:44;;;;;;;0.00;0.00;;;;;;;2.78;99.08;100069.38;6304483;22;20402;-75
2023/04/11 05:31:10;;;;;;;0.00;0.00;;;;;;;2.95;98.55;100113.66;6274366;22;20049;-76
2023/04/11 05:33:37;;;;;;;0.00;0.00;;;;;;;3.06;98.76;100122.09;6280068;22;20425;-76
2023/04/11 05:36:03;;;;;;;0.00;0.00;;;;;;;3.08;98.70;100117.28;6299033;22;20017;-74
2023/04/11 05:38:28;;;;;;;0.08;0.08;;;;;;;3.08;99.16;100114.56;6303386;22;20089;-74
2023/04/11 05:40:54;;;;;;;0.00;0.00;;;;;;;3.05;98.94;100109.63;6275400;22;20041;-74
2023/04/11 05:43:20;;;;;;;0.00;0.00;;;;;;;3.13;99.09;100125.56;6278900;22;20011;-73
2023/04/11 05:45:46;;;;;;;0.00;0.00;;;;;;;3.19;98.26;100124.66;6306138;22;20022;-74
2023/04/11 05:48:17;;;;;;;0.00;0.00;;;;;;;3.22;98.42;100104.47;6298799;22;20010;-74
2023/04/11 05:50:45;;;;;;;0.00;0.00;;;;;;;3.24;98.63;100105.03;6281121;22;20028;-74
2023/04/11 05:53:10;;;;;;;0.00;0.00;;;;;;;3.32;98.89;100102.06;6274857;22;19998;-75
2023/04/11 05:55:36;;;;;;;0.00;0.00;;;;;;;3.41;98.83;100100.69;6280094;22;20018;-75
2023/04/11 05:58:02;;;;;;;0.00;0.00;;;;;;;3.46;98.52;100100.00;6277627;22;20007;-75
2023/04/11 06:00:29;;;;;;;0.00;0.00;;;;;;;3.59;99.17;100116.09;6301101;22;20006;-75
2023/04/11 06:02:55;;;;;;;0.10;0.10;;;;;;;3.62;98.81;100112.06;6278876;22;20014;-75
2023/04/11 06:05:21;;;;;;;0.00;0.00;;;;;;;3.73;98.55;100114.00;6274545;22;20010;-75
2023/04/11 06:07:46;;;;;;;0.00;0.00;;;;;;;3.87;98.01;100122.78;6277809;22;20003;-74
2023/04/11 06:10:12;;;;;;;0.10;0.10;;;;;;;3.95;97.72;100118.94;6303957;22;20007;-73
2023/04/11 06:12:38;;;;;;;0.00;0.00;;;;;;;3.99;97.69;100106.59;6276769;22;20007;-74
2023/04/11 06:15:04;;;;;;;0.00;0.00;;;;;;;4.09;97.47;100104.16;6278473;22;20440;-75
2023/04/11 06:17:29;;;;;;;0.00;0.00;;;;;;;4.19;97.65;100111.69;6300633;22;19998;-75
2023/04/11 06:19:55;;;;;;;0.00;0.00;;;;;;;4.20;97.46;100105.22;6304535;22;20038;-75
2023/04/11 06:22:20;;;;;;;0.10;0.10;;;;;;;4.30;96.53;100112.78;6298700;22;20023;-75
2023/04/11 06:24:46;;;;;;;0.00;0.00;;;;;;;4.42;96.55;100115.53;6278408;22;20059;-75
2023/04/11 06:27:12;;;;;;;0.00;0.00;;;;;;;4.53;95.71;100125.56;6279100;22;20003;-74
2023/04/11 06:29:39;;;;;;;0.00;0.00;;;;;;;4.55;95.94;100120.72;6303266;22;19999;-74
2023/04/11 06:32:05;;;;;;;0.00;0.00;;;;;;;4.71;95.46;100124.63;6251609;22;20013;-75
2023/04/11 06:34:31;;;;;;;0.00;0.00;;;;;;;4.84;95.30;100118.16;6325886;22;20328;-73
2023/04/11 06:36:56;;;;;;;0.00;0.00;;;;;;;5.06;94.64;100131.94;6279273;22;20031;-73
2023/04/11 06:39:22;;;;;;;0.00;0.00;;;;;;;5.16;94.64;100126.75;6298009;22;20006;-75
2023/04/11 06:41:47;;;;;;;0.00;0.00;;;;;;;5.34;93.81;100125.75;6332666;22;20321;-74
2023/04/11 06:44:13;;;;;;;0.00;0.00;;;;;;;5.49;92.97;100125.28;6275888;22;20010;-74
2023/04/11 06:46:39;;;;;;;0.00;0.00;;;;;;;5.62;92.09;100132.28;6303232;22;20010;-73
2023/04/11 06:49:07;;;;;;;0.00;0.00;;;;;;;5.69;91.21;100116.69;6280348;22;20337;-74
2023/04/11 06:51:34;;;;;;;0.00;0.00;;;;;;;5.84;90.96;100120.78;6276036;22;20007;-76
2023/04/11 06:54:05;;;;;;;0.00;0.00;;;;;;;5.88;91.11;100102.97;6303665;22;20014;-76
2023/04/11 06:56:30;;;;;;;0.05;0.05;;;;;;;5.93;90.64;100103.06;6299003;22;20030;-75
2023/04/11 06:59:00;;;;;;;0.00;0.00;;;;;;;6.09;90.27;100115.88;6277575;22;20006;-76
2023/04/11 07:01:36;;;;;;;0.00;0.00;;;;;;;6.22;89.04;100100.34;6305154;22;20044;-76
2023/04/11 07:04:03;;;;;;;0.00;0.00;;;;;;;6.37;88.75;100108.75;6302446;22;20034;-76
2023/04/11 07:06:30;;;;;;;0.00;0.00;;;;;;;6.57;88.05;100091.13;6303851;22;20089;-76
2023/04/11 07:08:55;;;;;;;0.00;0.00;;;;;;;6.64;86.66;100080.91;6299385;22;20010;-75
2023/04/11 07:11:21;;;;;;;0.00;0.00;;;;;;;6.90;86.01;100097.63;6331469;22;19998;-75
2023/04/11 07:13:49;;;;;;;0.00;0.00;;;;;;;6.82;85.93;100082.56;6333574;22;20003;-76
2023/04/11 07:16:15;;;;;;;0.00;0.00;;;;;;;7.02;85.14;100097.50;6300954;22;20014;-74
2023/04/11 07:18:43;;;;;;;0.00;0.00;;;;;;;7.09;85.00;100088.09;6282001;22;20003;-75
2023/04/11 07:21:12;;;;;;;0.00;0.00;;;;;;;7.24;83.71;100089.38;6302559;22;20007;-75
2023/04/11 07:23:39;;;;;;;0.00;0.00;;;;;;;7.35;83.62;100074.84;6334893;22;20387;-75
2023/04/11 07:26:10;;;;;;;0.00;0.00;;;;;;;7.44;83.00;100072.50;6333188;22;20093;-75
2023/04/11 07:28:37;;;;;;;0.00;0.00;;;;;;;7.49;82.05;100070.66;6280292;22;20009;-75
2023/04/11 07:31:07;;;;;;;0.00;0.00;;;;;;;7.60;80.47;100068.06;6306450;22;20007;-75
2023/04/11 07:33:33;;;;;;;0.03;0.03;;;;;;;7.84;80.43;100074.84;6301340;22;20028;-75
2023/04/11 07:35:59;;;;;;;0.00;0.00;;;;;;;8.03;79.85;100079.91;6305109;22;20038;-75
2023/04/11 07:38:30;;;;;;;0.00;0.00;;;;;;;8.18;79.26;100092.88;6276062;22;20942;-75
2023/04/11 07:40:57;;;;;;;0.00;0.00;;;;;;;8.31;78.76;100086.16;6281886;22;20003;-75
2023/04/11 07:43:46;;;;;;;0.00;0.00;;;;;;;8.47;78.17;100093.44;6293835;22;20006;-75
2023/04/11 07:46:27;;;;;;;;;;;;;;;;;;;;;
2023/04/11 07:48:55;;;;;;;0.00;0.00;;;;;;;8.49;76.71;100085.00;6328812;22;20501;-75
2023/04/11 07:51:30;;;;;;;0.00;0.00;;;;;;;8.58;77.30;100075.25;6308880;22;20081;-75
2023/04/11 07:54:04;;;;;;;0.00;0.00;;;;;;;8.76;76.77;100071.31;6327199;22;20003;-74
2023/04/11 07:56:30;;;;;;;0.00;0.00;;;;;;;9.14;75.77;100109.44;6332053;22;20002;-74
2023/04/11 07:58:57;;;;;;;0.00;0.00;;;;;;;9.30;74.92;100099.41;6302862;22;20007;-74
2023/04/11 08:01:24;;;;;;;0.00;0.00;;;;;;;9.44;74.17;100081.47;6304460;22;20037;-75
2023/04/11 08:03:54;;;;;;;0.00;0.00;;;;;;;9.78;73.64;100086.50;6274897;22;20156;-74
2023/04/11 08:06:22;;;;;;;0.00;0.00;;;;;;;9.95;72.94;100073.44;6305886;22;20025;-74
2023/04/11 08:08:48;;;;;;;0.00;0.00;;;;;;;10.48;71.53;100091.53;6333326;22;19999;-74
2023/04/11 08:11:14;;;;;;;0.00;0.00;;;;;;;10.76;69.55;100089.34;6306658;22;20466;-74
2023/04/11 08:13:41;;;;;;;0.00;0.00;;;;;;;11.14;67.30;100108.97;6306884;22;20021;-74
2023/04/11 08:16:09;;;;;;;0.00;0.00;;;;;;;11.18;65.67;100096.38;6328731;22;20007;-75
2023/04/11 08:18:44;;;;;;;0.00;0.00;;;;;;;11.42;66.63;100076.56;6307553;22;20003;-74
2023/04/11 08:21:27;;;;;;;0.10;0.10;;;;;;;12.41;63.86;100062.00;6328969;22;20363;-76
2023/04/11 08:24:03;;;;;;;0.00;0.00;;;;;;;13.39;59.33;100085.75;6303160;22;20011;-74
2023/04/11 08:26:31;;;;;;;0.00;0.00;;;;;;;13.47;57.75;100070.56;6332140;22;20026;-74
2023/04/11 08:29:32;;;;;;;;;;;;;;;;;;;;;
2023/04/11 08:32:05;;;;;;;0.00;0.00;;;;;;;12.98;56.59;100097.16;6325198;22;20091;-75
2023/04/11 08:34:33;;;;;;;0.00;0.00;;;;;;;12.98;56.82;100098.00;6301600;22;20026;-73
2023/04/11 08:37:01;;;;;;;0.10;0.10;;;;;;;12.91;55.68;100081.84;6306231;22;19995;-74
2023/04/11 08:39:29;;;;;;;0.00;0.00;;;;;;;12.85;56.08;100060.22;6299598;22;20021;-74
2023/04/11 08:42:05;;;;;;;;;;;;;;;;;;;;;
2023/04/11 08:44:30;;;;;;;0.00;0.00;;;;;;;13.99;54.58;100087.16;6329047;22;20512;-74
2023/04/11 08:47:09;;;;;;;0.00;0.00;;;;;;;14.44;52.04;100069.16;6333340;22;20003;-74
2023/04/11 08:49:37;;;;;;;0.10;0.10;;;;;;;14.95;50.78;100056.47;6300603;22;20007;-74
2023/04/11 08:52:08;;;;;;;0.00;0.00;;;;;;;15.86;49.10;100065.09;6306064;22;19999;-74
2023/04/11 08:54:43;;;;;;;0.00;0.00;;;;;;;16.01;46.86;100070.25;6302737;22;20094;-74
2023/04/11 08:57:08;;;;;;;0.00;0.00;;;;;;;15.54;48.28;100078.69;6305769;22;19999;-73
2023/04/11 08:59:48;;;;;;;0.00;0.00;;;;;;;15.35;48.42;100056.75;6306303;22;20006;-74
2023/04/11 09:02:20;;;;;;;0.00;0.00;;;;;;;15.24;48.97;100071.03;6275821;22;20114;-75
2023/04/11 09:04:46;;;;;;;0.00;0.00;;;;;;;15.29;48.34;100065.44;6305706;22;20094;-75
2023/04/11 09:07:20;;;;;;;0.00;0.00;;;;;;;15.18;49.96;100051.84;6276028;22;20115;-75
2023/04/11 09:09:46;;;;;;;;;;;;;;;15.91;49.41;100072.44;6305770;22;20018;-74
2023/04/11 09:12:28;;;;;;;0.00;0.00;;;;;;;16.26;47.57;100072.72;6275580;22;19907;-75
2023/04/11 09:14:53;;;;;;;0.00;0.00;;;;;;;16.88;46.62;100070.06;6304647;22;20433;-74
2023/04/11 09:17:18;;;;;;;0.00;0.00;;;;;;;17.74;44.89;100069.84;6300063;22;20064;-74
2023/04/11 09:19:52;;;;;;;0.03;0.03;;;;;;;18.47;42.69;100058.16;6306624;22;20083;-73
2023/04/11 09:22:17;;;;;;;0.00;0.00;;;;;;;18.21;41.89;100042.41;6293344;22;20094;-72
2023/04/11 09:25:00;;;;;;;0.00;0.00;;;;;;;17.80;42.56;100074.91;6300999;22;20018;-74
2023/04/11 09:27:34;;;;;;;0.00;0.00;;;;;;;17.24;43.30;100041.47;6294830;22;20007;-74
2023/04/11 09:30:08;;;;;;;0.00;0.00;;;;;;;17.44;42.49;100061.34;6299083;22;20437;-74
2023/04/11 09:32:39;;;;;;;0.00;0.00;;;;;;;17.88;41.67;100048.38;6296141;22;20318;-74
2023/04/11 09:35:33;;;;;;;0.00;0.00;;;;;;;18.35;41.81;100058.03;6299626;22;20007;-73
2023/04/11 09:38:09;;;;;;;0.00;0.00;;;;;;;18.23;40.63;100034.59;6320805;22;21042;-75
2023/04/11 09:40:44;;;;;;;0.00;0.00;;;;;;;18.38;40.29;100038.78;6300565;22;20023;-73
2023/04/11 09:43:12;;;;;;;0.00;0.00;;;;;;;17.55;41.73;100040.56;6269825;22;20421;-73
2023/04/11 09:45:38;;;;;;;0.00;0.00;;;;;;;16.83;43.05;100020.44;6300461;22;20349;-73
2023/04/11 09:48:04;;;;;;;0.00;0.00;;;;;;;16.61;44.71;100032.34;6268314;22;20003;-74
2023/04/11 09:50:37;;;;;;;0.00;0.00;;;;;;;15.88;43.86;100014.00;6273410;22;20011;-74
2023/04/11 09:53:12;;;;;;;0.00;0.00;;;;;;;15.18;45.32;100002.28;6248605;22;20935;-74
2023/04/11 09:55:47;;;;;;;0.00;0.00;;;;;;;15.32;46.42;99990.44;6301936;22;20321;-74
2023/04/11 09:58:18;;;;;;;0.00;0.00;;;;;;;16.13;45.21;99992.44;6299617;22;19995;-75
2023/04/11 10:00:58;;;;;;;0.00;0.00;;;;;;;17.38;42.42;99986.03;6300074;22;20003;-75
2023/04/11 10:03:26;;;;;;;0.00;0.00;;;;;;;17.82;41.11;99999.91;6300727;22;19999;-75
2023/04/11 10:05:58;;;;;;;0.00;0.00;;;;;;;17.58;39.72;99984.63;6300175;22;20002;-75
2023/04/11 10:08:36;;;;;;;0.00;0.00;;;;;;;17.34;41.31;99990.59;6299327;22;19995;-74
2023/04/11 10:11:23;;;;;;;0.00;0.00;;;;;;;17.30;39.61;99966.69;6299433;22;20019;-75
2023/04/11 10:13:58;;;;;;;0.00;0.00;;;;;;;16.65;40.92;99974.59;6296642;22;20010;-75
2023/04/11 10:16:25;;;;;;;0.00;0.00;;;;;;;16.79;41.61;99982.75;6300286;22;20332;-74
2023/04/11 10:19:04;;;;;;;;;;;;;;;;;;;;;
2023/04/11 10:21:41;;;;;;;0.00;0.00;;;;;;;18.22;39.72;99969.28;6301361;22;20078;-74
2023/04/11 10:24:16;;;;;;;0.00;0.00;;;;;;;19.46;37.13;99975.97;6293280;22;20019;-74
2023/04/11 10:26:59;;;;;;;0.00;0.00;;;;;;;19.88;35.68;99970.44;6300245;22;19999;-73
2023/04/11 10:29:46;;;;;;;0.00;0.00;;;;;;;20.01;35.25;99944.34;6294614;22;20000;-73
2023/04/11 10:32:22;;;;;;;0.00;0.00;;;;;;;19.53;36.95;99940.19;6301587;22;20054;-73
2023/04/11 10:34:50;;;;;;;0.00;0.00;;;;;;;19.95;36.35;99954.06;6299728;22;20766;-73
2023/04/11 10:37:55;;;;;;;0.00;0.00;;;;;;;19.84;36.28;99925.94;6301478;22;20718;-74
2023/04/11 10:40:30;;;;;;;;;;;;;;;;;;;;;
2023/04/11 10:42:56;;;;;;;0.00;0.00;;;;;;;18.21;39.16;99945.56;6295860;22;20085;-74
2023/04/11 10:45:36;;;;;;;0.00;0.00;;;;;;;18.33;39.03;99935.75;6300189;22;20082;-74
2023/04/11 10:48:10;;;;;;;0.00;0.00;;;;;;;18.11;39.40;99932.06;6300475;22;19999;-74
2023/04/11 10:50:55;;;;;;;0.00;0.00;;;;;;;17.24;41.05;99942.00;6308715;22;20004;-74
2023/04/11 10:54:08;;;;;;;;;;;;;;;;;;;;;
2023/04/11 10:56:45;;;;;;;0.00;0.00;;;;;;;16.60;43.42;99938.84;6303271;22;20034;-75
2023/04/11 10:59:29;;;;;;;0.00;0.00;;;;;;;16.71;44.42;99927.19;6301614;22;20086;-74
2023/04/11 11:02:03;;;;;;;0.00;0.00;;;;;;;16.54;43.73;99914.16;6295937;22;20003;-74
2023/04/11 11:04:35;;;;;;;;;;;;;;;16.34;43.96;99920.19;6301188;22;20086;-74
2023/04/11 11:07:05;;;;;;;0.00;0.00;;;;;;;16.35;45.17;99910.78;6297402;22;19907;-74
2023/04/11 11:09:56;;;;;;;;;;;;;;;;;;;;;
2023/04/11 11:12:31;;;;;;;0.00;0.00;;;;;;;16.17;45.22;99910.72;6298928;22;20090;-75
2023/04/11 11:15:09;;;;;;;;;;;;;;;;;;;;;
2023/04/11 11:18:19;;;;;;;0.00;0.00;;;;;;;15.44;45.93;99886.03;6298888;22;20086;-75
2023/04/11 11:24:01;;;;;;;0.00;0.00;;;;;;;15.63;47.04;99904.34;6203297;23;20470;-75
2023/04/11 11:26:45;;;;;;;0.00;0.00;;;;;;;15.10;48.00;99873.59;6292020;22;20010;-74
2023/04/11 11:48:39;;;;;;;0.00;0.00;;;;;;;12.49;59.70;99822.00;6134781;23;20026;-81
2023/04/11 12:03:00;;;;;;;0.00;0.00;;;;;;;9.05;90.43;99817.25;6048804;23;20034;-79
2023/04/11 12:06:38;;;;;;;0.00;0.00;;;;;;;9.05;94.53;99860.91;5989031;24;20056;-80
2023/04/11 13:53:54;;;;;;;0.00;0.00;;;;;;;7.58;100.00;99668.31;6214494;22;1613262;-85
2023/04/11 13:56:27;;;;;;;0.00;0.00;;;;;;;7.48;100.00;99633.72;6207715;22;20011;-86
2023/04/11 13:58:56;;;;;;;0.00;0.00;;;;;;;7.63;100.00;99657.44;6249001;22;20327;-85
2023/04/11 14:02:02;;;;;;;0.00;0.00;;;;;;;7.34;100.00;99633.38;6221166;22;20008;-86
2023/04/11 14:11:34;;;;;;;0.00;0.00;;;;;;;7.20;100.00;99615.06;6073696;23;20458;-87
2023/04/11 14:14:07;;;;;;;0.00;0.00;;;;;;;6.98;100.00;99564.41;6070129;23;20014;-84
2023/04/11 14:16:49;;;;;;;;;;;;;;;;;;;;;
2023/04/11 14:19:48;;;;;;;;;;;;;;;;;;;;;
2023/04/11 14:22:44;;;;;;;0.00;0.00;;;;;;;6.96;100.00;99558.38;6166698;23;20113;-84
2023/04/11 14:29:19;;;;;;;0.00;0.00;;;;;;;7.04;100.00;99559.78;6151395;23;20099;-86